createdAt,value
2022-12-08T00:01:14.650Z,99973.34
2022-12-08T00:03:41.982Z,99971.34
2022-12-08T00:06:38.091Z,99971.47
2022-12-08T00:09:22.376Z,99973.09
2022-12-08T00:11:59.431Z,99974.88
2022-12-08T00:14:37.871Z,99955.38
2022-12-08T00:17:06.182Z,99964.06
2022-12-08T00:19:32.951Z,99966.41
2022-12-08T00:21:59.751Z,99961.69
2022-12-08T00:24:30.913Z,99958.72
2022-12-08T00:26:57.444Z,99968.56
2022-12-08T00:29:23.863Z,99947.19
2022-12-08T00:31:50.773Z,99952.22
2022-12-08T00:34:17.666Z,99953.59
2022-12-08T00:36:44.254Z,99957.50
2022-12-08T00:39:12.155Z,99951.22
2022-12-08T00:41:57.164Z,99947.28
2022-12-08T00:44:23.768Z,99948.31
2022-12-08T00:46:50.375Z,99939.38
2022-12-08T00:49:17.190Z,99944.56
2022-12-08T00:51:44.114Z,99939.97
2022-12-08T00:54:11.560Z,99941.38
2022-12-08T00:56:38.110Z,99938.53
2022-12-08T00:59:06.470Z,99939.09
2022-12-08T01:01:34.241Z,99941.44
2022-12-08T01:04:13.172Z,99929.94
2022-12-08T01:06:39.805Z,99928.00
2022-12-08T01:09:07.675Z,99932.06
2022-12-08T01:11:35.351Z,99929.25
2022-12-08T01:14:02.347Z,99927.66
2022-12-08T01:16:32.447Z,99938.66
2022-12-08T01:19:00.230Z,99932.03
2022-12-08T01:21:27.340Z,99927.94
2022-12-08T01:23:54.516Z,99929.31
2022-12-08T01:26:21.755Z,99925.09
2022-12-08T01:28:49.133Z,99924.44
2022-12-08T01:31:20.795Z,99931.34
2022-12-08T01:33:48.058Z,99933.59
2022-12-08T01:36:26.277Z,99923.25
2022-12-08T01:38:54.250Z,99924.91
2022-12-08T01:41:23.839Z,99914.00
2022-12-08T01:44:12.707Z,99915.00
2022-12-08T01:46:44.518Z,99921.97
2022-12-08T01:49:13.593Z,99917.31
2022-12-08T01:51:51.618Z,99918.63
2022-12-08T01:54:18.739Z,99926.09
2022-12-08T01:56:58.903Z,99921.56
2022-12-08T01:59:26.723Z,99923.38
2022-12-08T02:01:53.259Z,99921.59
2022-12-08T02:04:19.750Z,99918.03
2022-12-08T02:06:47.543Z,99917.75
2022-12-08T02:09:14.680Z,99918.56
2022-12-08T02:11:41.081Z,99916.13
2022-12-08T02:14:10.829Z,99908.06
2022-12-08T02:16:45.538Z,99906.78
2022-12-08T02:19:49.673Z,99896.13
2022-12-08T02:22:34.780Z,99898.75
2022-12-08T02:25:12.268Z,99899.81
2022-12-08T02:28:04.133Z,99899.00
2022-12-08T02:30:43.934Z,99890.59
2022-12-08T02:33:48.247Z,99879.97
2022-12-08T02:36:28.957Z,99888.16
2022-12-08T02:39:52.333Z,99882.06
2022-12-08T02:42:30.663Z,99875.25
2022-12-08T02:45:18.962Z,99867.97
2022-12-08T02:47:45.610Z,99868.16
2022-12-08T02:50:12.741Z,99866.38
2022-12-08T02:52:45.084Z,99865.69
2022-12-08T02:55:20.521Z,99870.34
2022-12-08T02:58:02.045Z,99869.69
2022-12-08T03:00:38.300Z,99870.94
2022-12-08T03:03:45.352Z,99876.94
2022-12-08T03:06:49.119Z,99881.78
2022-12-08T03:09:37.202Z,99867.88
2022-12-08T03:12:16.684Z,99864.59
2022-12-08T03:14:48.019Z,99863.75
2022-12-08T03:17:17.113Z,99861.13
2022-12-08T03:19:45.177Z,99854.97
2022-12-08T03:22:13.449Z,99854.53
2022-12-08T03:24:43.477Z,99850.69
2022-12-08T03:27:20.010Z,99843.00
2022-12-08T03:29:52.088Z,99851.69
2022-12-08T03:32:44.285Z,99847.50
2022-12-08T03:35:17.643Z,99843.28
2022-12-08T03:37:44.233Z,99837.75
2022-12-08T03:40:14.820Z,99823.16
2022-12-08T03:42:41.291Z,99826.59
2022-12-08T03:45:07.935Z,99832.22
2022-12-08T03:47:34.408Z,99827.66
2022-12-08T03:50:00.908Z,99835.09
2022-12-08T03:52:27.366Z,99828.41
2022-12-08T03:54:53.834Z,99835.63
2022-12-08T03:57:21.613Z,99819.09
2022-12-08T03:59:48.065Z,99824.16
2022-12-08T04:02:14.584Z,99817.75
2022-12-08T04:04:41.076Z,99812.00
2022-12-08T04:07:07.487Z,99813.25
2022-12-08T04:09:33.901Z,99807.53
2022-12-08T04:12:00.353Z,99804.13
2022-12-08T04:14:26.799Z,99803.69
2022-12-08T04:16:53.202Z,99805.50
2022-12-08T04:19:19.723Z,99810.56
2022-12-08T04:21:46.216Z,99803.91
2022-12-08T04:24:12.836Z,99803.16
2022-12-08T04:26:39.295Z,99788.56
2022-12-08T04:29:05.714Z,99795.38
2022-12-08T04:31:32.212Z,99794.63
2022-12-08T04:33:58.652Z,99790.13
2022-12-08T04:36:25.141Z,99780.97
2022-12-08T04:38:51.570Z,99780.94
2022-12-08T04:41:18.044Z,99791.09
2022-12-08T04:43:45.133Z,99781.47
2022-12-08T04:46:11.640Z,99783.34
2022-12-08T04:48:39.197Z,99790.31
2022-12-08T04:51:06.245Z,99787.53
2022-12-08T04:53:33.269Z,99774.28
2022-12-08T04:55:59.761Z,99777.03
2022-12-08T04:58:26.203Z,99777.53
2022-12-08T05:00:52.731Z,99774.81
2022-12-08T05:03:25.154Z,99768.28
2022-12-08T05:05:54.641Z,99773.03
2022-12-08T05:08:21.291Z,99760.09
2022-12-08T05:10:47.757Z,99760.09
2022-12-08T05:13:14.229Z,99755.09
2022-12-08T05:15:40.704Z,99757.63
2022-12-08T05:18:07.501Z,99760.81
2022-12-08T05:20:34.542Z,99751.44
2022-12-08T05:23:01.099Z,99755.22
2022-12-08T05:25:28.005Z,99755.13
2022-12-08T05:28:06.138Z,99754.59
2022-12-08T05:30:32.835Z,99752.41
2022-12-08T05:32:59.275Z,99761.00
2022-12-08T05:35:25.723Z,99752.69
2022-12-08T05:37:53.900Z,99744.25
2022-12-08T05:40:20.356Z,99744.53
2022-12-08T05:42:46.796Z,99745.06
2022-12-08T05:45:13.390Z,99738.31
2022-12-08T05:47:39.805Z,99753.69
2022-12-08T05:50:07.128Z,99745.75
2022-12-08T05:52:33.798Z,99743.19
2022-12-08T05:55:00.353Z,99746.78
2022-12-08T05:57:26.758Z,99743.81
2022-12-08T05:59:53.417Z,99739.59
2022-12-08T06:02:19.911Z,99740.91
2022-12-08T06:04:46.479Z,99731.88
2022-12-08T06:07:16.063Z,99731.81
2022-12-08T06:09:42.966Z,99724.94
2022-12-08T06:12:11.689Z,99722.84
2022-12-08T06:14:39.130Z,99730.63
2022-12-08T06:17:05.799Z,99723.34
2022-12-08T06:19:32.231Z,99730.00
2022-12-08T06:21:58.698Z,99718.53
2022-12-08T06:24:25.125Z,99727.94
2022-12-08T06:26:51.602Z,99732.09
2022-12-08T06:29:18.056Z,99728.78
2022-12-08T06:31:44.563Z,99730.47
2022-12-08T06:34:11.094Z,99739.97
2022-12-08T06:36:37.594Z,99734.88
2022-12-08T06:39:04.187Z,99733.03
2022-12-08T06:41:30.707Z,99733.06
2022-12-08T06:43:57.637Z,99729.44
2022-12-08T06:46:24.645Z,99730.28
2022-12-08T06:48:51.182Z,99731.97
2022-12-08T06:51:19.886Z,99730.28
2022-12-08T06:53:47.288Z,99729.06
2022-12-08T06:56:15.712Z,99719.56
2022-12-08T06:58:46.113Z,99723.81
2022-12-08T07:01:16.996Z,99732.66
2022-12-08T07:03:43.729Z,99731.88
2022-12-08T07:06:16.429Z,99737.44
2022-12-08T07:08:43.031Z,99734.03
2022-12-08T07:11:12.358Z,99738.22
2022-12-08T07:13:40.754Z,99733.56
2022-12-08T07:16:09.463Z,99740.19
2022-12-08T07:18:36.648Z,99738.72
2022-12-08T07:21:08.858Z,99738.09
2022-12-08T07:23:35.737Z,99743.41
2022-12-08T07:26:04.168Z,99745.50
2022-12-08T07:28:35.392Z,99746.72
2022-12-08T07:31:02.551Z,99746.59
2022-12-08T07:33:29.271Z,99733.19
2022-12-08T07:36:01.774Z,99740.66
2022-12-08T07:38:28.631Z,99741.19
2022-12-08T07:40:55.335Z,99738.97
2022-12-08T07:43:23.116Z,99743.72
2022-12-08T07:45:50.741Z,99746.19
2022-12-08T07:48:19.452Z,99743.53
2022-12-08T07:50:46.446Z,99749.44
2022-12-08T07:53:13.549Z,99749.84
2022-12-08T07:55:41.225Z,99753.72
2022-12-08T07:58:07.987Z,99745.13
2022-12-08T08:00:34.538Z,99752.59
2022-12-08T08:03:01.215Z,99750.16
2022-12-08T08:05:27.697Z,99749.97
2022-12-08T08:07:54.230Z,99750.13
2022-12-08T08:10:20.734Z,99745.22
2022-12-08T08:12:47.755Z,99748.13
2022-12-08T08:15:14.260Z,99748.00
2022-12-08T08:17:40.795Z,99750.16
2022-12-08T08:20:08.375Z,99745.53
2022-12-08T08:22:35.439Z,99755.28
2022-12-08T08:25:01.862Z,99750.16
2022-12-08T08:27:28.304Z,99750.63
2022-12-08T08:29:55.837Z,99752.75
2022-12-08T08:32:22.294Z,99755.38
2022-12-08T08:34:48.750Z,99750.25
2022-12-08T08:37:15.266Z,99752.78
2022-12-08T08:39:43.014Z,99747.91
2022-12-08T08:42:09.515Z,99751.31
2022-12-08T08:44:37.386Z,99754.03
2022-12-08T08:47:03.831Z,99756.31
2022-12-08T08:49:30.284Z,99748.69
2022-12-08T08:51:56.791Z,99748.31
2022-12-08T08:54:23.352Z,99762.69
2022-12-08T08:56:49.777Z,99751.72
2022-12-08T08:59:16.243Z,99752.25
2022-12-08T09:01:42.703Z,99756.53
2022-12-08T09:04:10.362Z,99759.13
2022-12-08T09:06:37.031Z,99759.44
2022-12-08T09:09:04.090Z,99755.53
2022-12-08T09:11:32.018Z,99755.59
2022-12-08T09:13:58.457Z,99759.91
2022-12-08T09:16:25.074Z,99766.41
2022-12-08T09:18:51.850Z,99760.63
2022-12-08T09:21:22.607Z,99762.97
2022-12-08T09:23:50.645Z,99763.88
2022-12-08T09:26:17.274Z,99755.97
2022-12-08T09:28:46.444Z,99764.59
2022-12-08T09:31:17.474Z,99762.59
2022-12-08T09:33:44.098Z,99767.72
2022-12-08T09:36:11.771Z,99762.09
2022-12-08T09:38:38.949Z,99768.59
2022-12-08T09:41:29.423Z,99765.41
2022-12-08T09:44:47.538Z,99762.81
2022-12-08T09:47:36.332Z,99760.16
2022-12-08T09:50:37.580Z,99754.25
2022-12-08T09:53:14.902Z,99763.38
2022-12-08T09:55:59.624Z,99759.38
2022-12-08T09:58:51.931Z,99754.09
2022-12-08T10:01:20.453Z,99757.50
2022-12-08T10:03:47.976Z,99755.59
2022-12-08T10:06:21.404Z,99758.59
2022-12-08T10:09:18.303Z,99765.22
2022-12-08T10:12:17.329Z,99754.56
2022-12-08T10:14:47.736Z,99764.94
2022-12-08T10:17:25.512Z,99754.66
2022-12-08T10:19:59.523Z,99758.84
2022-12-08T10:22:31.035Z,99756.53
2022-12-08T10:25:06.973Z,99760.50
2022-12-08T10:27:37.282Z,99747.13
2022-12-08T10:30:18.545Z,99762.69
2022-12-08T10:32:47.958Z,99753.72
2022-12-08T10:35:16.847Z,99760.84
2022-12-08T10:38:01.496Z,99759.44
2022-12-08T10:40:34.943Z,99756.09
2022-12-08T10:43:05.158Z,99753.81
2022-12-08T10:45:38.642Z,99747.78
2022-12-08T10:48:06.939Z,99753.31
2022-12-08T10:50:42.639Z,99745.69
2022-12-08T10:53:09.016Z,99742.97
2022-12-08T10:55:47.068Z,99736.53
2022-12-08T10:58:44.965Z,99732.97
2022-12-08T11:01:21.944Z,99731.94
2022-12-08T11:03:53.010Z,99729.38
2022-12-08T11:06:28.518Z,99724.69
2022-12-08T11:09:00.532Z,99721.53
2022-12-08T11:11:47.527Z,99726.16
2022-12-08T11:14:20.158Z,99721.41
2022-12-08T11:16:46.672Z,99722.28
2022-12-08T11:19:17.851Z,99731.44
2022-12-08T11:21:46.032Z,99722.75
2022-12-08T11:24:15.216Z,99740.75
2022-12-08T11:26:59.347Z,99734.56
2022-12-08T11:29:28.081Z,99740.66
2022-12-08T11:32:02.763Z,99739.03
2022-12-08T11:34:42.656Z,99738.44
2022-12-08T11:37:35.688Z,99734.56
2022-12-08T11:40:08.005Z,99722.88
2022-12-08T11:42:43.618Z,99733.91
2022-12-08T11:45:19.271Z,99730.13
2022-12-08T11:47:56.767Z,99728.72
2022-12-08T11:50:29.624Z,99732.28
2022-12-08T11:52:58.319Z,99734.69
2022-12-08T11:55:49.675Z,99731.09
2022-12-08T11:58:24.020Z,99736.16
2022-12-08T12:00:50.497Z,99731.59
2022-12-08T12:03:31.189Z,99742.50
2022-12-08T12:09:22.418Z,99740.19
2022-12-08T12:12:16.656Z,99744.84
2022-12-08T12:15:11.539Z,99743.06
2022-12-08T12:18:01.552Z,99738.84
2022-12-08T12:20:39.790Z,99733.44
2022-12-08T12:23:39.242Z,99737.25
2022-12-08T12:26:08.879Z,99737.63
2022-12-08T12:28:49.721Z,99746.06
2022-12-08T12:31:21.607Z,99744.59
2022-12-08T12:33:50.369Z,99735.94
2022-12-08T12:36:18.737Z,99736.00
2022-12-08T12:39:01.577Z,99739.69
2022-12-08T12:41:32.393Z,99729.00
2022-12-08T12:44:14.228Z,99728.69
2022-12-08T12:46:48.244Z,99732.84
2022-12-08T12:49:39.739Z,99733.63
2022-12-08T12:52:15.387Z,99726.91
2022-12-08T12:55:10.540Z,99720.78
2022-12-08T12:57:39.142Z,99724.38
2022-12-08T13:00:05.615Z,99726.06
2022-12-08T13:02:44.538Z,99729.53
2022-12-08T13:05:17.339Z,99729.22
2022-12-08T13:07:50.129Z,99727.44
2022-12-08T13:10:18.896Z,99728.31
2022-12-08T13:13:01.074Z,99737.59
2022-12-08T13:15:35.637Z,99724.25
2022-12-08T13:18:02.331Z,99718.31
2022-12-08T13:20:28.861Z,99728.19
2022-12-08T13:23:13.641Z,99729.88
2022-12-08T13:25:42.984Z,99727.91
2022-12-08T13:28:15.492Z,99728.16
2022-12-08T13:30:44.907Z,99722.41
2022-12-08T13:33:18.968Z,99721.09
2022-12-08T13:36:11.724Z,99725.38
2022-12-08T13:38:39.027Z,99731.91
2022-12-08T13:41:13.432Z,99726.06
2022-12-08T13:44:50.473Z,99727.44
2022-12-08T13:51:16.129Z,99733.03
2022-12-08T13:58:35.305Z,99735.66
2022-12-08T14:01:23.326Z,99752.88
2022-12-08T14:04:30.558Z,99756.97
2022-12-08T14:06:43.261Z,99749.41
2022-12-08T14:09:17.623Z,99757.97
2022-12-08T14:11:47.911Z,99751.50
2022-12-08T14:14:53.952Z,99755.16
2022-12-08T14:17:15.879Z,99753.69
2022-12-08T14:19:45.617Z,99762.91
2022-12-08T14:22:16.421Z,99754.38
2022-12-08T14:24:50.165Z,99761.50
2022-12-08T14:27:31.788Z,99765.03
2022-12-08T14:30:01.568Z,99752.03
2022-12-08T14:32:50.722Z,99753.56
2022-12-08T14:35:26.652Z,99764.38
2022-12-08T14:37:57.238Z,99762.25
2022-12-08T14:40:48.068Z,99751.09
2022-12-08T14:43:20.269Z,99768.47
2022-12-08T14:45:49.222Z,99768.03
2022-12-08T14:48:21.175Z,99764.22
2022-12-08T14:51:18.433Z,99763.44
2022-12-08T14:53:47.384Z,99762.94
2022-12-08T14:56:26.687Z,99761.94
2022-12-08T14:59:13.300Z,99757.53
2022-12-08T15:01:41.190Z,99764.00
2022-12-08T15:04:12.994Z,99766.59
2022-12-08T15:07:07.366Z,99768.50
2022-12-08T15:09:39.724Z,99772.09
2022-12-08T15:12:11.895Z,99769.34
2022-12-08T15:14:41.701Z,99764.09
2022-12-08T15:17:29.777Z,99772.25
2022-12-08T15:19:57.980Z,99772.25
2022-12-08T15:22:24.881Z,99781.84
2022-12-08T15:24:51.321Z,99782.00
2022-12-08T15:27:19.606Z,99778.53
2022-12-08T15:30:00.646Z,99781.25
2022-12-08T15:32:27.230Z,99789.44
2022-12-08T15:34:53.785Z,99792.41
2022-12-08T15:37:26.286Z,99797.81
2022-12-08T15:39:53.142Z,99796.88
2022-12-08T15:42:19.667Z,99796.81
2022-12-08T15:44:46.132Z,99803.53
2022-12-08T15:47:21.241Z,99801.03
2022-12-08T15:49:49.652Z,99802.59
2022-12-08T15:52:19.723Z,99806.72
2022-12-08T15:54:46.594Z,99812.28
2022-12-08T15:57:44.195Z,99813.22
2022-12-08T16:07:12.338Z,99808.22
2022-12-08T16:09:12.420Z,99806.75
2022-12-08T16:12:08.240Z,99805.91
2022-12-08T16:17:23.482Z,99799.81
2022-12-08T16:19:50.031Z,99799.59
2022-12-08T16:22:54.100Z,99801.22
2022-12-08T16:25:21.625Z,99809.25
2022-12-08T16:28:36.826Z,99807.47
2022-12-08T16:30:41.103Z,99814.50
2022-12-08T16:33:07.908Z,99814.50
2022-12-08T16:35:34.505Z,99819.78
2022-12-08T16:38:01.079Z,99820.53
2022-12-08T16:40:27.510Z,99816.28
2022-12-08T16:42:54.594Z,99818.53
2022-12-08T16:45:23.093Z,99805.84
2022-12-08T16:47:51.238Z,99814.59
2022-12-08T16:50:27.740Z,99815.53
2022-12-08T16:52:58.316Z,99814.72
2022-12-08T16:55:24.784Z,99813.75
2022-12-08T16:57:51.334Z,99814.19
2022-12-08T17:00:20.862Z,99818.41
2022-12-08T17:02:47.373Z,99817.38
2022-12-08T17:05:15.908Z,99811.66
2022-12-08T17:07:43.946Z,99818.69
2022-12-08T17:10:13.536Z,99810.97
2022-12-08T17:12:40.049Z,99814.03
2022-12-08T17:15:13.953Z,99814.28
2022-12-08T17:17:41.114Z,99816.81
2022-12-08T17:20:12.177Z,99816.19
2022-12-08T17:22:38.804Z,99811.03
2022-12-08T17:25:05.953Z,99812.31
2022-12-08T17:27:32.464Z,99813.44
2022-12-08T17:29:59.229Z,99822.69
2022-12-08T17:32:25.800Z,99816.97
2022-12-08T17:34:52.302Z,99818.06
2022-12-08T17:37:19.502Z,99811.16
2022-12-08T17:39:45.991Z,99818.53
2022-12-08T17:42:12.444Z,99815.88
2022-12-08T17:44:39.022Z,99820.22
2022-12-08T17:47:05.654Z,99820.22
2022-12-08T17:49:33.882Z,99818.53
2022-12-08T17:52:03.187Z,99824.56
2022-12-08T17:54:30.195Z,99822.84
2022-12-08T17:56:58.586Z,99827.97
2022-12-08T17:59:26.538Z,99828.91
2022-12-08T18:01:54.416Z,99829.84
2022-12-08T18:04:21.478Z,99829.03
2022-12-08T18:06:48.137Z,99828.25
2022-12-08T18:09:15.544Z,99839.03
2022-12-08T18:11:43.269Z,99832.34
2022-12-08T18:14:11.067Z,99828.63
2022-12-08T18:16:40.376Z,99820.88
2022-12-08T18:19:07.915Z,99843.09
2022-12-08T18:21:35.144Z,99833.41
2022-12-08T18:24:02.201Z,99843.16
2022-12-08T18:26:30.564Z,99820.28
2022-12-08T18:28:57.759Z,99830.34
2022-12-08T18:31:24.534Z,99833.34
2022-12-08T18:33:51.954Z,99831.50
2022-12-08T18:36:20.843Z,99835.84
2022-12-08T18:38:47.779Z,99830.03
2022-12-08T18:41:17.304Z,99833.09
2022-12-08T18:43:43.948Z,99833.97
2022-12-08T18:46:12.187Z,99835.34
2022-12-08T18:48:41.353Z,99829.66
2022-12-08T18:51:15.633Z,99835.97
2022-12-08T18:53:43.262Z,99845.72
2022-12-08T18:56:22.082Z,99838.81
2022-12-08T18:58:48.632Z,99846.44
2022-12-08T19:01:15.356Z,99856.13
2022-12-08T19:03:52.768Z,99847.34
2022-12-08T19:06:29.717Z,99848.78
2022-12-08T19:08:56.518Z,99850.97
2022-12-08T19:11:26.506Z,99838.69
2022-12-08T19:13:54.391Z,99855.72
2022-12-08T19:16:21.888Z,99850.34
2022-12-08T19:18:48.386Z,99851.31
2022-12-08T19:21:14.842Z,99845.28
2022-12-08T19:23:41.389Z,99843.22
2022-12-08T19:26:08.677Z,99861.78
2022-12-08T19:28:35.459Z,99855.44
2022-12-08T19:31:09.350Z,99863.81
2022-12-08T19:33:37.514Z,99862.19
2022-12-08T19:36:09.154Z,99871.84
2022-12-08T19:38:55.873Z,99872.06
2022-12-08T19:41:41.784Z,99867.00
2022-12-08T19:44:16.685Z,99872.25
2022-12-08T19:46:43.358Z,99865.59
2022-12-08T19:49:09.813Z,99860.63
2022-12-08T19:51:36.347Z,99863.25
2022-12-08T19:54:02.849Z,99865.16
2022-12-08T19:56:29.387Z,99866.28
2022-12-08T19:58:55.834Z,99866.72
2022-12-08T20:01:22.306Z,99873.94
2022-12-08T20:03:48.789Z,99872.94
2022-12-08T20:06:17.989Z,99876.69
2022-12-08T20:08:50.233Z,99875.91
2022-12-08T20:11:17.098Z,99877.41
2022-12-08T20:13:47.707Z,99883.25
2022-12-08T20:16:16.012Z,99888.50
2022-12-08T20:18:43.985Z,99885.09
2022-12-08T20:21:12.149Z,99890.56
2022-12-08T20:23:38.618Z,99894.03
2022-12-08T20:26:11.261Z,99891.63
2022-12-08T20:28:37.907Z,99894.56
2022-12-08T20:31:05.272Z,99888.41
2022-12-08T20:33:31.864Z,99892.09
2022-12-08T20:36:05.066Z,99890.16
2022-12-08T20:38:31.885Z,99896.81
2022-12-08T20:40:59.215Z,99888.78
2022-12-08T20:43:26.098Z,99895.31
2022-12-08T20:45:52.536Z,99891.75
2022-12-08T20:48:19.075Z,99896.94
2022-12-08T20:50:45.583Z,99894.78
2022-12-08T20:53:12.128Z,99892.84
2022-12-08T20:55:41.229Z,99901.22
2022-12-08T20:58:07.718Z,99893.63
2022-12-08T21:00:34.439Z,99895.88
2022-12-08T21:03:01.092Z,99894.28
2022-12-08T21:05:27.867Z,99899.78
2022-12-08T21:07:54.499Z,99898.19
2022-12-08T21:10:20.984Z,99903.44
2022-12-08T21:12:47.621Z,99902.84
2022-12-08T21:15:14.068Z,99906.50
2022-12-08T21:17:40.890Z,99902.00
2022-12-08T21:20:08.184Z,99908.22
2022-12-08T21:22:34.968Z,99908.50
2022-12-08T21:25:01.928Z,99908.75
2022-12-08T21:27:28.499Z,99909.69
2022-12-08T21:29:54.991Z,99910.59
2022-12-08T21:32:25.666Z,99920.50
2022-12-08T21:34:55.171Z,99919.38
2022-12-08T21:37:21.636Z,99908.91
2022-12-08T21:39:48.313Z,99913.16
2022-12-08T21:42:34.414Z,99906.47
2022-12-08T21:45:01.370Z,99902.97
2022-12-08T21:47:27.966Z,99913.22
2022-12-08T21:49:54.493Z,99917.41
2022-12-08T21:52:21.129Z,99917.78
2022-12-08T21:54:47.685Z,99912.34
2022-12-08T21:57:14.364Z,99912.59
2022-12-08T21:59:40.886Z,99917.84
2022-12-08T22:02:10.538Z,99912.00
2022-12-08T22:04:37.235Z,99919.78
2022-12-08T22:07:03.930Z,99913.50
2022-12-08T22:09:30.990Z,99910.75
2022-12-08T22:11:57.634Z,99921.38
2022-12-08T22:14:24.116Z,99914.41
2022-12-08T22:16:50.707Z,99919.00
2022-12-08T22:19:17.365Z,99915.44
2022-12-08T22:21:43.989Z,99920.00
2022-12-08T22:24:10.692Z,99914.88
2022-12-08T22:26:37.214Z,99911.41
2022-12-08T22:29:03.739Z,99907.31
2022-12-08T22:31:30.432Z,99916.09
2022-12-08T22:33:58.923Z,99916.13
2022-12-08T22:36:27.683Z,99917.78
2022-12-08T22:38:55.012Z,99910.78
2022-12-08T22:41:22.197Z,99911.09
2022-12-08T22:43:49.911Z,99903.94
2022-12-08T22:46:24.991Z,99899.81
2022-12-08T22:48:52.507Z,99913.03
2022-12-08T22:51:19.512Z,99914.97
2022-12-08T22:53:47.409Z,99917.09
2022-12-08T22:56:15.338Z,99921.03
2022-12-08T22:58:42.713Z,99910.19
2022-12-08T23:01:20.668Z,99911.47
2022-12-08T23:03:47.320Z,99923.72
2022-12-08T23:06:14.052Z,99918.53
2022-12-08T23:08:40.742Z,99930.03
2022-12-08T23:11:07.250Z,99922.63
2022-12-08T23:13:33.756Z,99922.22
2022-12-08T23:16:00.245Z,99924.31
2022-12-08T23:18:26.748Z,99927.81
2022-12-08T23:20:53.491Z,99918.84
2022-12-08T23:23:19.926Z,99911.72
2022-12-08T23:25:46.465Z,99924.78
2022-12-08T23:28:13.229Z,99921.75
2022-12-08T23:30:40.786Z,99917.22
2022-12-08T23:33:07.336Z,99915.41
2022-12-08T23:35:34.054Z,99914.78
2022-12-08T23:38:00.753Z,99915.66
2022-12-08T23:40:27.512Z,99912.59
2022-12-08T23:42:53.996Z,99906.56
2022-12-08T23:45:22.369Z,99906.56
2022-12-08T23:47:49.017Z,99912.50
2022-12-08T23:50:15.516Z,99913.28
2022-12-08T23:52:42.141Z,99906.34
2022-12-08T23:55:09.429Z,99913.56
2022-12-08T23:57:36.689Z,99907.13
